메인 페이지
METAR-TAF:

METAR-TAF

공항 :

세인트존스, 뉴펀들랜드 래브라도, 캐나다

위도: 47-37N, 경도: 052-44W, 고도: 134m

현재 날씨관측

예보는 52분 전, 19:00시(UTC)에 발표되었습니다.
남남동18kt, 순간 최대 풍속 25kt
온도 4°C
습도 87%
기압 1024 hPa
시정: 24.1km
고도 1400ft 상공 구름 많음
고도 22000ft 상공 흐림

METAR: CYYT 121900Z 16018G25KT 15SM BKN014 OVC220 04/02 A3025 RMK SC7CI1 SLP253

시각: 16:22 (19:52 UTC)

예보

예보는 2 시간 14분 전, 17:38시(UTC)에 발표되었습니다.
예보 대상 시간: 12일 18시부터 13일 18시까지 (UTC)
남남동15kt, 순간 최대 풍속 25kt
시정: 10km
고도 1500ft 상공 구름 조금
고도 12000ft 상공 흐림
일시적
12일 18시부터 12일 21시까지 (UTC)
고도 1500ft 상공 구름 많음
고도 12000ft 상공 흐림
12일 2100시부터 (UTC)
남남동18kt, 순간 최대 풍속 28kt
시정: 10km
고도 1000ft 상공 구름 많음
고도 14000ft 상공 흐림
일시적
12일 21시부터 13일 03시까지 (UTC)
고도 1000ft 상공 구름 보통
고도 14000ft 상공 흐림
전환 중
12일 23시부터 13일 01시까지 (UTC)
20kt, 순간 최대 풍속 30kt
13일 0300시부터 (UTC)
남남서20kt, 순간 최대 풍속 30kt
시정: 10km
고도 2000ft 상공 구름 조금
고도 18000ft 상공 구름 많음
13일 1000시부터 (UTC)
20kt, 순간 최대 풍속 35kt
시정: 9.7km
고도 800ft 상공 구름 조금
고도 1500ft 상공 흐림
약한소나기, 박무

TAF: CYYT 121738Z 1218/1318 15015G25KT P6SM FEW015 OVC120 TEMPO 1218/1221 BKN015 OVC120 FM122100 16018G28KT P6SM BKN010 OVC140 TEMPO 1221/1303 SCT010 OVC140 BECMG 1223/1301 18020G30KT FM130300 20020G30KT P6SM FEW020 BKN180 FM131000 18020G35KT 6SM -SHRA BR FEW008 OVC015 RMK NXT FCST BY 130000Z

4,000개 이상의 공항 관측 자료 및 예보 (METAR 및 TAF 보고).

지도상에서 검색 가능한 기상관측소가 노란 점과 빨간 점으로 표시되어 있습니다.

기상관측소 명을 보려면 표시 위로 마우스를 이동하세요.

날씨 관측과 예보를 보려면 클릭하세요.

지도 변경 : 확대하려면 엑스 표시가 있는 녹색 버튼, 축소하려면 빼기 표시가 있는 녹색 버튼, 다음 페이지의 지도를 보려면 녹색 화살표를 클릭하세요.


METAR-TAF: